createdAt,value
2023-02-13T00:00:39.541Z,21.83
2023-02-13T00:03:07.683Z,23.17
2023-02-13T00:05:35.776Z,22.20
2023-02-13T00:08:03.916Z,23.57
2023-02-13T00:10:32.029Z,22.90
2023-02-13T00:13:01.454Z,22.50
2023-02-13T00:15:29.583Z,24.23
2023-02-13T00:17:57.650Z,23.80
2023-02-13T00:20:26.041Z,25.50
2023-02-13T00:22:54.120Z,24.27
2023-02-13T00:25:22.241Z,23.00
2023-02-13T00:27:52.140Z,22.40
2023-02-13T00:30:22.757Z,23.10
2023-02-13T00:32:51.831Z,22.03
2023-02-13T00:35:19.892Z,22.63
2023-02-13T00:37:47.948Z,23.60
2023-02-13T00:40:16.073Z,23.90
2023-02-13T00:42:44.150Z,22.90
2023-02-13T00:45:12.208Z,23.17
2023-02-13T00:47:41.610Z,24.00
2023-02-13T00:50:10.306Z,24.70
2023-02-13T00:52:38.402Z,25.33
2023-02-13T00:55:07.292Z,24.40
2023-02-13T00:57:35.305Z,23.53
2023-02-13T01:00:04.750Z,24.50
2023-02-13T01:02:38.738Z,25.07
2023-02-13T01:05:08.860Z,23.70
2023-02-13T01:07:36.914Z,24.20
2023-02-13T01:10:05.311Z,24.00
2023-02-13T01:12:33.471Z,24.20
2023-02-13T01:15:01.579Z,23.93
2023-02-13T01:17:29.652Z,25.90
2023-02-13T01:19:58.762Z,25.00
2023-02-13T01:22:28.191Z,24.40
2023-02-13T01:24:56.291Z,25.67
2023-02-13T01:27:24.393Z,24.63
2023-02-13T01:29:52.470Z,25.87
2023-02-13T01:32:20.589Z,25.60
2023-02-13T01:34:48.835Z,25.83
2023-02-13T01:37:16.936Z,26.20
2023-02-13T01:39:46.378Z,26.53
2023-02-13T01:42:17.573Z,25.53
2023-02-13T01:44:53.567Z,25.43
2023-02-13T01:47:27.420Z,25.13
2023-02-13T01:50:06.261Z,25.07
2023-02-13T01:52:35.187Z,25.03
2023-02-13T01:55:06.053Z,25.17
2023-02-13T01:57:34.935Z,25.53
2023-02-13T02:00:07.533Z,25.90
2023-02-13T02:02:40.814Z,26.70
2023-02-13T02:05:11.021Z,26.60
2023-02-13T02:07:40.548Z,25.33
2023-02-13T02:10:15.178Z,27.03
2023-02-13T02:12:47.694Z,26.60
2023-02-13T02:15:15.838Z,25.10
2023-02-13T02:17:43.885Z,26.17
2023-02-13T02:20:24.934Z,26.10
2023-02-13T02:23:31.769Z,25.50
2023-02-13T02:26:35.769Z,27.23
2023-02-13T02:29:36.586Z,25.43
2023-02-13T02:32:29.144Z,28.53
2023-02-13T02:35:10.931Z,26.37
2023-02-13T02:37:53.479Z,26.93
2023-02-13T02:40:28.265Z,27.07
2023-02-13T02:43:18.210Z,27.07
2023-02-13T02:45:54.654Z,27.27
2023-02-13T02:48:49.070Z,27.77
2023-02-13T02:51:22.798Z,26.93
2023-02-13T02:54:02.838Z,26.70
2023-02-13T02:56:38.768Z,27.17
2023-02-13T02:59:37.957Z,27.57
2023-02-13T03:02:25.345Z,26.83
2023-02-13T03:05:15.246Z,26.77
2023-02-13T03:07:43.294Z,26.70
2023-02-13T03:10:31.579Z,27.07
2023-02-13T03:13:21.858Z,27.97
2023-02-13T03:16:09.954Z,28.13
2023-02-13T03:18:59.469Z,27.27
2023-02-13T03:21:56.263Z,26.90
2023-02-13T03:24:29.792Z,28.70
2023-02-13T03:27:07.105Z,27.57
2023-02-13T03:30:03.074Z,27.47
2023-02-13T03:32:40.596Z,28.43
2023-02-13T03:35:43.318Z,28.50
2023-02-13T03:38:18.557Z,27.40
2023-02-13T03:41:10.480Z,28.10
2023-02-13T03:43:46.337Z,26.50
2023-02-13T03:46:15.610Z,29.13
2023-02-13T03:49:03.110Z,27.97
2023-02-13T03:51:35.982Z,27.03
2023-02-13T03:54:08.370Z,27.20
2023-02-13T03:56:55.519Z,27.80
2023-02-13T03:59:28.437Z,28.07
2023-02-13T04:02:05.010Z,27.13
2023-02-13T04:04:40.553Z,26.87
2023-02-13T04:07:11.795Z,28.00
2023-02-13T04:09:44.309Z,26.20
2023-02-13T04:12:18.886Z,26.60
2023-02-13T04:14:51.897Z,26.07
2023-02-13T04:17:27.106Z,26.67
2023-02-13T04:19:55.748Z,26.80
2023-02-13T04:22:23.750Z,26.20
2023-02-13T04:24:53.252Z,26.97
2023-02-13T04:27:21.501Z,27.40
2023-02-13T04:29:49.601Z,26.73
2023-02-13T04:32:17.648Z,27.90
2023-02-13T04:34:45.667Z,27.70
2023-02-13T04:37:13.715Z,27.27
2023-02-13T04:39:41.785Z,27.83
2023-02-13T04:42:11.206Z,28.67
2023-02-13T04:44:39.306Z,27.90
2023-02-13T04:47:07.341Z,29.70
2023-02-13T04:49:35.419Z,28.63
2023-02-13T04:52:03.480Z,28.47
2023-02-13T04:54:31.550Z,29.03
2023-02-13T04:56:59.633Z,28.70
2023-02-13T04:59:29.060Z,29.43
2023-02-13T05:01:59.185Z,31.27
2023-02-13T05:04:28.867Z,32.83
2023-02-13T05:06:57.030Z,29.73
2023-02-13T05:09:25.203Z,30.63
2023-02-13T05:11:54.006Z,33.10
2023-02-13T05:14:22.348Z,30.57
2023-02-13T05:16:51.810Z,29.73
2023-02-13T05:19:19.702Z,29.33
2023-02-13T05:22:05.150Z,31.80
2023-02-13T05:24:33.195Z,31.23
2023-02-13T05:27:01.280Z,32.50
2023-02-13T05:29:29.347Z,33.43
2023-02-13T05:32:00.820Z,33.20
2023-02-13T05:34:30.060Z,33.40
2023-02-13T05:36:58.191Z,33.20
2023-02-13T05:39:26.256Z,34.73
2023-02-13T05:41:54.373Z,32.67
2023-02-13T05:44:22.431Z,33.83
2023-02-13T05:46:50.531Z,33.93
2023-02-13T05:49:20.212Z,34.27
2023-02-13T05:51:48.240Z,35.20
2023-02-13T05:54:16.672Z,34.53
2023-02-13T05:56:45.107Z,35.47
2023-02-13T05:59:13.448Z,35.33
2023-02-13T06:01:41.882Z,34.17
2023-02-13T06:04:10.017Z,35.80
2023-02-13T06:06:39.533Z,38.63
2023-02-13T06:09:07.622Z,35.63
2023-02-13T06:11:36.391Z,38.00
2023-02-13T06:14:04.701Z,37.57
2023-02-13T06:16:32.742Z,37.13
2023-02-13T06:19:00.649Z,37.90
2023-02-13T06:21:28.682Z,37.70
2023-02-13T06:23:58.106Z,37.93
2023-02-13T06:26:26.244Z,40.10
2023-02-13T06:28:54.329Z,42.37
2023-02-13T06:31:22.775Z,43.70
2023-02-13T06:33:50.934Z,42.17
2023-02-13T06:36:18.971Z,45.83
2023-02-13T06:38:47.033Z,45.50
2023-02-13T06:41:16.520Z,47.60
2023-02-13T06:43:44.585Z,49.30
2023-02-13T06:46:12.743Z,51.60
2023-02-13T06:48:40.889Z,49.77
2023-02-13T06:51:08.941Z,50.70
2023-02-13T06:53:37.023Z,50.83
2023-02-13T06:56:06.269Z,50.60
2023-02-13T06:58:36.108Z,54.23
2023-02-13T07:01:04.353Z,52.10
2023-02-13T07:03:32.674Z,55.47
2023-02-13T07:06:01.410Z,57.27
2023-02-13T07:08:29.526Z,58.47
2023-02-13T07:10:58.408Z,59.07
2023-02-13T07:13:26.616Z,61.87
2023-02-13T07:15:58.294Z,62.70
2023-02-13T07:18:26.864Z,66.10
2023-02-13T07:20:55.156Z,64.40
2023-02-13T07:23:23.401Z,65.70
2023-02-13T07:25:51.476Z,63.73
2023-02-13T07:28:19.580Z,64.47
2023-02-13T07:30:47.650Z,63.97
2023-02-13T07:33:17.045Z,66.40
2023-02-13T07:35:48.047Z,67.00
2023-02-13T07:38:16.066Z,72.20
2023-02-13T07:40:44.360Z,72.77
2023-02-13T07:43:14.557Z,73.60
2023-02-13T07:45:42.646Z,74.83
2023-02-13T07:48:10.698Z,72.03
2023-02-13T07:50:40.168Z,73.03
2023-02-13T07:53:08.230Z,76.17
2023-02-13T07:55:38.364Z,74.70
2023-02-13T07:58:06.688Z,81.30
2023-02-13T08:00:34.940Z,79.23
2023-02-13T08:03:03.344Z,82.43
2023-02-13T08:05:33.200Z,83.87
2023-02-13T08:08:02.592Z,85.97
2023-02-13T08:10:48.004Z,87.57
2023-02-13T08:13:17.147Z,85.53
2023-02-13T08:15:45.515Z,85.77
2023-02-13T08:18:13.633Z,89.63
2023-02-13T08:20:41.657Z,88.53
2023-02-13T08:23:12.323Z,87.23
2023-02-13T08:25:41.709Z,84.17
2023-02-13T08:28:09.797Z,83.33
2023-02-13T08:30:38.098Z,79.30
2023-02-13T08:33:06.159Z,73.90
2023-02-13T08:35:34.294Z,71.60
2023-02-13T08:38:06.058Z,70.90
2023-02-13T08:40:35.629Z,64.33
2023-02-13T08:43:05.020Z,64.53
2023-02-13T08:45:34.534Z,61.87
2023-02-13T08:48:04.436Z,62.03
2023-02-13T08:50:32.991Z,59.30
2023-02-13T08:53:01.632Z,59.27
2023-02-13T08:55:31.518Z,58.13
2023-02-13T08:58:02.755Z,58.00
2023-02-13T09:00:31.277Z,58.47
2023-02-13T09:03:02.103Z,53.70
2023-02-13T09:05:31.677Z,51.30
2023-02-13T09:08:02.743Z,47.30
2023-02-13T09:10:30.897Z,45.20
2023-02-13T09:12:59.112Z,42.87
2023-02-13T09:15:28.638Z,41.57
2023-02-13T09:17:56.767Z,39.23
2023-02-13T09:20:24.829Z,37.13
2023-02-13T09:22:52.878Z,39.13
2023-02-13T09:25:21.738Z,37.27
2023-02-13T09:27:49.917Z,38.97
2023-02-13T09:30:23.584Z,37.67
2023-02-13T09:32:54.286Z,36.40
2023-02-13T09:35:23.713Z,33.30
2023-02-13T09:37:51.769Z,32.43
2023-02-13T09:40:26.646Z,31.57
2023-02-13T09:43:06.234Z,30.10
2023-02-13T09:45:35.075Z,27.90
2023-02-13T09:48:06.841Z,27.70
2023-02-13T09:50:35.953Z,25.87
2023-02-13T09:53:05.795Z,26.20
2023-02-13T09:55:47.307Z,26.10
2023-02-13T09:58:21.508Z,26.30
2023-02-13T10:00:54.722Z,26.40
2023-02-13T10:03:30.637Z,25.47
2023-02-13T10:06:08.454Z,26.10
2023-02-13T10:08:50.920Z,24.60
2023-02-13T10:11:35.274Z,25.33
2023-02-13T10:14:11.676Z,23.20
2023-02-13T10:16:44.475Z,22.80
2023-02-13T10:19:24.109Z,23.50
2023-02-13T10:21:55.705Z,22.83
2023-02-13T10:24:32.577Z,24.00
2023-02-13T10:27:04.910Z,22.60
2023-02-13T10:29:57.803Z,22.90
2023-02-13T10:32:31.139Z,24.80
2023-02-13T10:35:03.423Z,22.80
2023-02-13T10:37:31.757Z,24.20
2023-02-13T10:39:59.937Z,22.97
2023-02-13T10:42:42.593Z,23.10
2023-02-13T10:45:32.176Z,22.30
2023-02-13T10:48:13.302Z,22.30
2023-02-13T10:50:52.359Z,20.77
2023-02-13T10:53:27.968Z,19.43
2023-02-13T10:56:17.561Z,20.67
2023-02-13T10:58:59.507Z,19.27
2023-02-13T11:01:33.694Z,19.50
2023-02-13T11:04:10.843Z,19.57
2023-02-13T11:06:44.138Z,19.47
2023-02-13T11:09:13.591Z,18.67
2023-02-13T11:11:43.935Z,21.73
2023-02-13T11:14:15.940Z,18.90
2023-02-13T11:16:58.565Z,19.00
2023-02-13T11:19:32.426Z,18.40
2023-02-13T11:22:05.812Z,19.00
2023-02-13T11:24:34.777Z,17.90
2023-02-13T11:27:08.733Z,18.20
2023-02-13T11:29:39.100Z,17.93
2023-02-13T11:32:19.258Z,17.73
2023-02-13T11:34:48.339Z,18.33
2023-02-13T11:37:21.442Z,19.23
2023-02-13T11:39:51.569Z,18.53
2023-02-13T11:42:25.903Z,17.47
2023-02-13T11:44:56.789Z,17.50
2023-02-13T11:47:40.083Z,18.83
2023-02-13T11:50:22.502Z,18.10
2023-02-13T11:53:01.075Z,18.63
2023-02-13T11:55:32.881Z,18.20
2023-02-13T11:58:03.441Z,17.53
2023-02-13T12:00:37.666Z,18.57
2023-02-13T12:03:27.270Z,19.00
2023-02-13T12:06:03.908Z,19.30
2023-02-13T12:08:36.000Z,20.17
2023-02-13T12:11:09.158Z,20.73
2023-02-13T12:13:39.831Z,18.90
2023-02-13T12:16:15.441Z,19.07
2023-02-13T12:18:46.151Z,17.70
2023-02-13T12:21:30.281Z,19.60
2023-02-13T12:24:12.176Z,18.37
2023-02-13T12:26:43.834Z,17.37
2023-02-13T12:29:35.816Z,19.00
2023-02-13T12:32:18.502Z,17.97
2023-02-13T12:35:01.884Z,18.40
2023-02-13T12:37:48.808Z,17.90
2023-02-13T12:40:40.830Z,19.10
2023-02-13T12:43:30.616Z,17.53
2023-02-13T12:46:06.223Z,17.80
2023-02-13T12:48:41.327Z,19.07
2023-02-13T12:51:26.931Z,18.30
2023-02-13T12:54:07.008Z,18.43
2023-02-13T12:57:03.303Z,18.23
2023-02-13T12:59:42.637Z,17.90
2023-02-13T13:02:44.286Z,17.80
2023-02-13T13:05:27.298Z,17.77
2023-02-13T13:08:16.475Z,18.30
2023-02-13T13:10:54.306Z,19.43
2023-02-13T13:13:39.329Z,18.30
2023-02-13T13:16:17.862Z,18.20
2023-02-13T13:19:00.591Z,18.07
2023-02-13T13:21:40.671Z,18.00
2023-02-13T13:24:23.339Z,18.37
2023-02-13T13:26:54.204Z,17.60
2023-02-13T13:29:27.222Z,17.30
2023-02-13T13:31:58.696Z,17.30
2023-02-13T13:34:28.336Z,17.53
2023-02-13T13:37:03.561Z,17.80
2023-02-13T13:39:40.936Z,17.63
2023-02-13T13:42:16.992Z,17.90
2023-02-13T13:45:10.146Z,18.63
2023-02-13T13:47:54.395Z,17.90
2023-02-13T13:50:26.612Z,18.70
2023-02-13T13:53:11.164Z,19.00
2023-02-13T13:56:05.883Z,17.67
2023-02-13T13:58:40.942Z,18.93
2023-02-13T14:01:35.106Z,19.30
2023-02-13T14:04:24.864Z,18.40
2023-02-13T14:07:23.086Z,17.37
2023-02-13T14:09:51.444Z,18.00
2023-02-13T14:12:39.812Z,17.50
2023-02-13T14:15:51.608Z,17.30
2023-02-13T14:18:24.537Z,18.43
2023-02-13T14:20:55.440Z,17.67
2023-02-13T14:23:50.010Z,18.67
2023-02-13T14:26:35.322Z,18.10
2023-02-13T14:29:25.065Z,19.97
2023-02-13T14:32:04.093Z,18.90
2023-02-13T14:34:36.453Z,20.23
2023-02-13T14:37:21.063Z,18.70
2023-02-13T14:40:28.569Z,19.10
2023-02-13T14:42:59.872Z,18.90
2023-02-13T14:45:32.305Z,19.10
2023-02-13T14:48:08.977Z,19.63
2023-02-13T14:50:46.880Z,18.23
2023-02-13T14:53:22.522Z,18.20
2023-02-13T14:55:57.625Z,18.50
2023-02-13T14:58:30.587Z,18.43
2023-02-13T15:01:03.196Z,18.70
2023-02-13T15:03:38.100Z,18.90
2023-02-13T15:06:15.801Z,20.07
2023-02-13T15:08:49.641Z,20.60
2023-02-13T15:11:39.416Z,19.00
2023-02-13T15:14:18.658Z,19.50
2023-02-13T15:16:49.757Z,20.47
2023-02-13T15:19:20.437Z,18.60
2023-02-13T15:21:53.560Z,19.03
2023-02-13T15:24:26.344Z,18.83
2023-02-13T15:27:03.239Z,19.63
2023-02-13T15:29:44.200Z,19.00
2023-02-13T15:32:22.916Z,18.97
2023-02-13T15:34:51.261Z,19.13
2023-02-13T15:37:26.153Z,18.57
2023-02-13T15:39:54.186Z,20.00
2023-02-13T15:42:22.784Z,19.87
2023-02-13T15:44:55.140Z,18.70
2023-02-13T15:47:29.361Z,19.00
2023-02-13T15:49:57.703Z,18.27
2023-02-13T15:52:32.871Z,18.50
2023-02-13T15:55:01.074Z,19.00
2023-02-13T15:57:30.004Z,18.10
2023-02-13T15:59:59.864Z,19.67
2023-02-13T16:02:37.619Z,18.90
2023-02-13T16:05:07.687Z,19.80
2023-02-13T16:07:50.201Z,19.30
2023-02-13T16:10:20.031Z,19.90
2023-02-13T16:12:49.348Z,20.10
2023-02-13T16:15:20.382Z,19.60
2023-02-13T16:17:49.540Z,19.40
2023-02-13T16:20:23.629Z,21.77
2023-02-13T16:22:54.733Z,20.00
2023-02-13T16:25:26.151Z,19.77
2023-02-13T16:27:57.401Z,19.00
2023-02-13T16:30:33.137Z,19.23
2023-02-13T16:33:28.759Z,19.20
2023-02-13T16:35:58.395Z,18.90
2023-02-13T16:38:38.286Z,21.30
2023-02-13T16:41:07.932Z,19.83
2023-02-13T16:43:41.773Z,19.93
2023-02-13T16:46:20.246Z,20.40
2023-02-13T16:48:59.290Z,19.20
2023-02-13T16:51:35.742Z,18.40
2023-02-13T16:54:07.822Z,20.23
2023-02-13T16:56:41.449Z,19.60
2023-02-13T16:59:24.401Z,20.40
2023-02-13T17:02:05.001Z,20.70
2023-02-13T17:04:33.104Z,20.83
2023-02-13T17:07:01.121Z,21.37
2023-02-13T17:09:30.609Z,21.50
2023-02-13T17:11:58.614Z,21.97
2023-02-13T17:14:26.698Z,24.20
2023-02-13T17:16:54.855Z,23.73
2023-02-13T17:19:23.057Z,22.90
2023-02-13T17:21:53.379Z,23.13
2023-02-13T17:24:21.445Z,22.13
2023-02-13T17:26:50.850Z,22.23
2023-02-13T17:29:18.926Z,22.73
2023-02-13T17:31:47.099Z,22.67
2023-02-13T17:34:15.167Z,24.77
2023-02-13T17:36:43.280Z,23.53
2023-02-13T17:39:11.308Z,26.80
2023-02-13T17:41:42.781Z,25.67
2023-02-13T17:44:13.757Z,26.80
2023-02-13T17:46:41.936Z,23.47
2023-02-13T17:49:09.938Z,27.63
2023-02-13T17:51:40.483Z,27.73
2023-02-13T17:54:12.443Z,28.70
2023-02-13T17:56:40.507Z,27.87
2023-02-13T17:59:08.651Z,29.57
2023-02-13T18:01:38.215Z,30.77
2023-02-13T18:04:06.489Z,31.60
2023-02-13T18:06:34.527Z,33.60
2023-02-13T18:09:02.638Z,33.40
2023-02-13T18:11:31.205Z,35.23
2023-02-13T18:13:59.245Z,38.55
2023-02-13T18:16:27.373Z,37.77
2023-02-13T18:18:57.689Z,40.03
2023-02-13T18:21:25.771Z,36.03
2023-02-13T18:23:54.340Z,33.50
2023-02-13T18:26:23.534Z,35.27
2023-02-13T18:28:53.049Z,33.33
2023-02-13T18:31:21.325Z,34.70
2023-02-13T18:33:50.192Z,34.20
2023-02-13T18:36:20.118Z,32.37
2023-02-13T18:38:48.504Z,33.70
2023-02-13T18:41:16.569Z,33.33
2023-02-13T18:43:45.057Z,34.53
2023-02-13T18:46:13.965Z,35.97
2023-02-13T18:48:42.146Z,35.97
2023-02-13T18:51:10.174Z,38.10
2023-02-13T18:53:39.827Z,36.80
2023-02-13T18:56:09.822Z,36.40
2023-02-13T18:58:38.041Z,37.37
2023-02-13T19:01:07.890Z,41.73
2023-02-13T19:03:37.229Z,44.80
2023-02-13T19:06:08.331Z,47.43
2023-02-13T19:08:36.773Z,53.37
2023-02-13T19:11:07.469Z,59.23
2023-02-13T19:13:35.665Z,64.23
2023-02-13T19:16:07.687Z,65.60
2023-02-13T19:18:37.318Z,68.03
2023-02-13T19:21:06.563Z,69.90
2023-02-13T19:23:35.406Z,74.50
2023-02-13T19:26:08.605Z,74.20
2023-02-13T19:28:37.230Z,75.13
2023-02-13T19:31:08.529Z,77.70
2023-02-13T19:33:39.128Z,77.30
2023-02-13T19:36:11.854Z,81.70
2023-02-13T19:38:41.251Z,78.20
2023-02-13T19:41:13.403Z,76.20
2023-02-13T19:43:42.009Z,78.00
2023-02-13T19:46:13.224Z,78.67
2023-02-13T19:48:41.790Z,76.20
2023-02-13T19:51:11.044Z,70.63
2023-02-13T19:53:39.707Z,72.07
2023-02-13T19:56:10.897Z,75.60
2023-02-13T19:58:40.528Z,73.60
2023-02-13T20:01:09.677Z,74.97
2023-02-13T20:03:37.838Z,76.37
2023-02-13T20:06:08.142Z,78.07
2023-02-13T20:08:36.568Z,76.57
2023-02-13T20:11:07.011Z,79.33
2023-02-13T20:13:36.458Z,79.70
2023-02-13T20:16:06.256Z,80.97
2023-02-13T20:18:34.728Z,82.00
2023-02-13T20:21:06.808Z,80.17
2023-02-13T20:23:35.035Z,81.53
2023-02-13T20:26:06.623Z,79.70
2023-02-13T20:28:36.013Z,77.53
2023-02-13T20:31:10.465Z,79.97
2023-02-13T20:33:39.325Z,80.70
2023-02-13T20:36:11.685Z,77.47
2023-02-13T20:38:39.953Z,77.67
2023-02-13T20:41:12.191Z,78.53
2023-02-13T20:43:41.894Z,81.00
2023-02-13T20:46:10.258Z,87.63
2023-02-13T20:48:39.129Z,86.33
2023-02-13T20:51:09.680Z,82.77
2023-02-13T20:53:37.975Z,89.03
2023-02-13T20:56:07.708Z,88.57
2023-02-13T20:58:35.873Z,88.07
2023-02-13T21:01:11.719Z,86.03
2023-02-13T21:03:39.948Z,86.50
2023-02-13T21:06:09.110Z,90.78
2023-02-13T21:08:38.171Z,85.80
2023-02-13T21:11:08.010Z,83.60
2023-02-13T21:13:36.778Z,81.30
2023-02-13T21:16:08.490Z,80.27
2023-02-13T21:18:36.704Z,80.33
2023-02-13T21:21:05.513Z,80.40
2023-02-13T21:23:34.219Z,82.10
2023-02-13T21:26:03.757Z,76.60
2023-02-13T21:28:32.397Z,77.57
2023-02-13T21:31:05.557Z,76.53
2023-02-13T21:33:35.067Z,78.10
2023-02-13T21:36:04.448Z,82.87
2023-02-13T21:38:32.500Z,77.53
2023-02-13T21:41:06.384Z,80.17
2023-02-13T21:43:37.629Z,79.53
2023-02-13T21:46:10.342Z,83.00
2023-02-13T21:48:40.496Z,81.20
2023-02-13T21:51:09.859Z,79.73
2023-02-13T21:53:38.267Z,82.40
2023-02-13T21:56:07.812Z,80.43
2023-02-13T21:58:37.177Z,82.23
2023-02-13T22:01:17.435Z,83.50
2023-02-13T22:03:54.946Z,86.27
2023-02-13T22:06:23.133Z,84.23
2023-02-13T22:08:56.291Z,83.70
2023-02-13T22:11:24.727Z,84.90
2023-02-13T22:13:56.611Z,84.00
2023-02-13T22:16:25.399Z,84.87
2023-02-13T22:18:55.599Z,84.07
2023-02-13T22:21:25.497Z,87.03
2023-02-13T22:23:53.987Z,87.63
2023-02-13T22:26:23.936Z,88.83
2023-02-13T22:28:53.105Z,88.73
2023-02-13T22:31:25.255Z,89.50
2023-02-13T22:34:03.513Z,91.00
2023-02-13T22:36:32.702Z,91.63
2023-02-13T22:39:00.777Z,92.20
2023-02-13T22:41:29.262Z,92.57
2023-02-13T22:43:58.155Z,91.50
2023-02-13T22:46:28.545Z,91.47
2023-02-13T22:48:58.388Z,91.70
2023-02-13T22:51:29.632Z,93.67
2023-02-13T22:53:58.650Z,91.43
2023-02-13T22:56:28.082Z,91.90
2023-02-13T22:58:56.164Z,91.63
2023-02-13T23:01:26.134Z,95.67
2023-02-13T23:03:54.415Z,89.70
2023-02-13T23:06:24.770Z,90.53
2023-02-13T23:08:53.649Z,91.67
2023-02-13T23:11:41.548Z,93.53
2023-02-13T23:14:10.528Z,92.60
2023-02-13T23:16:53.124Z,92.87
2023-02-13T23:19:21.821Z,94.07
2023-02-13T23:21:52.264Z,96.37
2023-02-13T23:24:20.326Z,99.70
2023-02-13T23:26:48.385Z,101.20
2023-02-13T23:29:16.462Z,98.53
2023-02-13T23:31:44.630Z,100.10
2023-02-13T23:34:12.839Z,100.87
2023-02-13T23:36:41.313Z,101.73
2023-02-13T23:39:10.709Z,100.00
2023-02-13T23:41:38.786Z,98.70
2023-02-13T23:44:06.814Z,97.70
2023-02-13T23:46:34.967Z,97.17
2023-02-13T23:49:05.551Z,98.87
2023-02-13T23:51:35.218Z,100.57
2023-02-13T23:54:03.359Z,100.17
2023-02-13T23:56:32.748Z,99.17
2023-02-13T23:59:02.869Z,98.17
